createdAt,value
2023-04-25T00:00:21.994Z,23.37
2023-04-25T00:01:22.025Z,23.38
2023-04-25T00:02:22.155Z,23.38
2023-04-25T00:03:22.477Z,23.37
2023-04-25T00:04:22.397Z,23.37
2023-04-25T00:05:22.228Z,23.37
2023-04-25T00:06:22.193Z,23.37
2023-04-25T00:07:22.240Z,23.36
2023-04-25T00:08:22.286Z,23.36
2023-04-25T00:09:22.329Z,23.36
2023-04-25T00:10:22.370Z,23.36
2023-04-25T00:11:22.386Z,23.35
2023-04-25T00:12:22.413Z,23.35
2023-04-25T00:13:22.428Z,23.36
2023-04-25T00:14:22.457Z,23.35
2023-04-25T00:15:22.493Z,23.34
2023-04-25T00:16:22.537Z,23.35
2023-04-25T00:17:22.594Z,23.35
2023-04-25T00:18:22.597Z,23.35
2023-04-25T00:19:22.622Z,23.34
2023-04-25T00:20:22.693Z,23.34
2023-04-25T00:21:22.734Z,23.34
2023-04-25T00:22:22.754Z,23.34
2023-04-25T00:23:22.778Z,23.34
2023-04-25T00:24:22.821Z,23.34
2023-04-25T00:25:23.084Z,23.33
2023-04-25T00:26:22.870Z,23.33
2023-04-25T00:27:22.896Z,23.33
2023-04-25T00:28:22.960Z,23.33
2023-04-25T00:29:23.008Z,23.33
2023-04-25T00:30:23.042Z,23.33
2023-04-25T00:31:23.101Z,23.33
2023-04-25T00:32:23.165Z,23.33
2023-04-25T00:33:23.126Z,23.33
2023-04-25T00:34:23.148Z,23.32
2023-04-25T00:35:23.181Z,23.32
2023-04-25T00:36:23.164Z,23.32
2023-04-25T00:37:23.219Z,23.31
2023-04-25T00:38:23.272Z,23.31
2023-04-25T00:39:23.255Z,23.31
2023-04-25T00:40:23.296Z,23.31
2023-04-25T00:41:23.289Z,23.30
2023-04-25T00:42:23.334Z,23.30
2023-04-25T00:43:23.364Z,23.30
2023-04-25T00:44:23.418Z,23.30
2023-04-25T00:45:23.459Z,23.30
2023-04-25T00:46:23.518Z,23.30
2023-04-25T00:47:23.621Z,23.30
2023-04-25T00:48:23.558Z,23.30
2023-04-25T00:49:23.718Z,23.29
2023-04-25T00:50:23.641Z,23.29
2023-04-25T00:51:23.666Z,23.29
2023-04-25T00:52:23.726Z,23.28
2023-04-25T00:53:23.706Z,23.28
2023-04-25T00:54:23.781Z,23.28
2023-04-25T00:55:23.812Z,23.26
2023-04-25T00:56:23.841Z,23.27
2023-04-25T00:57:23.833Z,23.28
2023-04-25T00:58:23.876Z,23.27
2023-04-25T00:59:23.922Z,23.28
2023-04-25T01:00:23.958Z,23.28
2023-04-25T01:01:24.010Z,23.26
2023-04-25T01:02:24.059Z,23.27
2023-04-25T01:03:24.241Z,23.27
2023-04-25T01:04:24.102Z,23.27
2023-04-25T01:05:24.104Z,23.26
2023-04-25T01:06:24.103Z,23.26
2023-04-25T01:07:24.158Z,23.25
2023-04-25T01:08:24.170Z,23.25
2023-04-25T01:09:24.289Z,23.25
2023-04-25T01:10:24.206Z,23.25
2023-04-25T01:11:24.252Z,23.24
2023-04-25T01:12:24.505Z,23.25
2023-04-25T01:13:24.667Z,23.25
2023-04-25T01:14:24.649Z,23.25
2023-04-25T01:15:24.448Z,23.24
2023-04-25T01:16:24.511Z,23.24
2023-04-25T01:17:24.574Z,23.23
2023-04-25T01:18:24.583Z,23.23
2023-04-25T01:19:24.607Z,23.20
2023-04-25T01:20:24.636Z,23.21
2023-04-25T01:21:24.666Z,23.21
2023-04-25T01:22:24.675Z,23.20
2023-04-25T01:23:24.741Z,23.20
2023-04-25T01:24:24.817Z,23.20
2023-04-25T01:25:24.814Z,23.21
2023-04-25T01:26:24.827Z,23.21
2023-04-25T01:27:24.847Z,23.21
2023-04-25T01:28:24.886Z,23.21
2023-04-25T01:29:24.887Z,23.21
2023-04-25T01:30:24.935Z,23.21
2023-04-25T01:31:24.993Z,23.20
2023-04-25T01:32:25.003Z,23.20
2023-04-25T01:33:25.042Z,23.20
2023-04-25T01:34:25.049Z,23.20
2023-04-25T01:35:25.122Z,23.20
2023-04-25T01:36:25.080Z,23.20
2023-04-25T01:37:25.127Z,23.20
2023-04-25T01:38:25.143Z,23.20
2023-04-25T01:39:25.150Z,23.20
2023-04-25T01:40:25.178Z,23.20
2023-04-25T01:41:25.209Z,23.20
2023-04-25T01:42:25.219Z,23.19
2023-04-25T01:43:25.231Z,23.18
2023-04-25T01:44:25.296Z,23.19
2023-04-25T01:45:25.316Z,23.18
2023-04-25T01:46:25.404Z,23.17
2023-04-25T01:47:25.391Z,23.16
2023-04-25T01:48:25.382Z,23.15
2023-04-25T01:49:25.383Z,23.15
2023-04-25T01:50:25.410Z,23.15
2023-04-25T01:51:25.469Z,23.15
2023-04-25T01:52:25.489Z,23.15
2023-04-25T01:53:25.511Z,23.15
2023-04-25T01:54:25.576Z,23.15
2023-04-25T01:55:25.573Z,23.16
2023-04-25T01:56:25.636Z,23.15
2023-04-25T01:57:25.675Z,23.16
2023-04-25T01:58:25.690Z,23.16
2023-04-25T01:59:25.701Z,23.15
2023-04-25T02:00:25.729Z,23.15
2023-04-25T02:01:25.797Z,23.15
2023-04-25T02:02:25.937Z,23.15
2023-04-25T02:03:25.974Z,23.14
2023-04-25T02:04:26.022Z,23.14
2023-04-25T02:05:25.849Z,23.14
2023-04-25T02:06:25.877Z,23.14
2023-04-25T02:07:25.904Z,23.13
2023-04-25T02:08:25.931Z,23.14
2023-04-25T02:09:25.950Z,23.14
2023-04-25T02:10:25.967Z,23.13
2023-04-25T02:11:25.989Z,23.13
2023-04-25T02:12:26.023Z,23.13
2023-04-25T02:13:26.040Z,23.12
2023-04-25T02:14:26.057Z,23.11
2023-04-25T02:15:26.069Z,23.11
2023-04-25T02:16:26.195Z,23.11
2023-04-25T02:17:26.114Z,23.11
2023-04-25T02:18:26.119Z,23.10
2023-04-25T02:19:26.182Z,23.11
2023-04-25T02:20:26.203Z,23.10
2023-04-25T02:21:26.242Z,23.11
2023-04-25T02:22:26.249Z,23.10
2023-04-25T02:23:26.260Z,23.11
2023-04-25T02:24:26.318Z,23.11
2023-04-25T02:25:26.334Z,23.11
2023-04-25T02:26:26.368Z,23.10
2023-04-25T02:27:26.410Z,23.10
2023-04-25T02:28:26.421Z,23.09
2023-04-25T02:29:26.450Z,23.09
2023-04-25T02:30:26.455Z,23.11
2023-04-25T02:31:26.519Z,23.09
2023-04-25T02:32:26.617Z,23.09
2023-04-25T02:33:26.555Z,23.09
2023-04-25T02:34:26.567Z,23.10
2023-04-25T02:35:26.587Z,23.10
2023-04-25T02:36:26.619Z,23.09
2023-04-25T02:37:26.614Z,23.09
2023-04-25T02:38:26.680Z,23.09
2023-04-25T02:39:26.682Z,23.08
2023-04-25T02:40:26.662Z,23.07
2023-04-25T02:41:26.690Z,23.07
2023-04-25T02:42:26.722Z,23.07
2023-04-25T02:43:26.746Z,23.06
2023-04-25T02:44:26.792Z,23.07
2023-04-25T02:45:26.835Z,23.07
2023-04-25T02:46:38.265Z,23.07
2023-04-25T02:47:27.925Z,23.06
2023-04-25T02:48:26.844Z,23.06
2023-04-25T02:49:26.809Z,23.07
2023-04-25T02:50:26.845Z,23.06
2023-04-25T02:51:26.832Z,23.06
2023-04-25T02:52:26.866Z,23.07
2023-04-25T02:53:26.837Z,23.05
2023-04-25T02:54:26.860Z,23.06
2023-04-25T02:55:28.449Z,23.05
2023-04-25T02:56:26.823Z,23.05
2023-04-25T02:57:26.850Z,23.05
2023-04-25T02:58:27.611Z,23.05
2023-04-25T02:59:26.830Z,23.05
2023-04-25T03:00:26.964Z,23.04
2023-04-25T03:01:26.894Z,23.04
2023-04-25T03:02:26.920Z,23.04
2023-04-25T03:03:27.048Z,23.03
2023-04-25T03:04:26.865Z,23.04
2023-04-25T03:05:26.948Z,23.03
2023-04-25T03:06:26.898Z,23.04
2023-04-25T03:07:26.880Z,23.03
2023-04-25T03:08:26.922Z,23.03
2023-04-25T03:09:26.942Z,23.02
2023-04-25T03:10:26.983Z,23.04
2023-04-25T03:11:27.025Z,23.04
2023-04-25T03:12:27.049Z,23.03
2023-04-25T03:13:27.038Z,23.03
2023-04-25T03:14:27.093Z,23.04
2023-04-25T03:15:27.124Z,23.04
2023-04-25T03:16:27.174Z,23.05
2023-04-25T03:17:27.197Z,23.06
2023-04-25T03:18:27.186Z,23.08
2023-04-25T03:19:27.219Z,23.09
2023-04-25T03:20:27.323Z,23.10
2023-04-25T03:21:27.333Z,23.11
2023-04-25T03:22:27.325Z,23.11
2023-04-25T03:23:27.341Z,23.14
2023-04-25T03:24:27.368Z,23.15
2023-04-25T03:25:27.406Z,23.17
2023-04-25T03:26:27.419Z,23.18
2023-04-25T03:27:27.437Z,23.19
2023-04-25T03:28:27.494Z,23.20
2023-04-25T03:29:27.545Z,23.22
2023-04-25T03:30:27.560Z,23.23
2023-04-25T03:31:27.561Z,23.24
2023-04-25T03:32:27.626Z,23.26
2023-04-25T03:33:27.612Z,23.28
2023-04-25T03:34:27.655Z,23.30
2023-04-25T03:35:27.688Z,23.31
2023-04-25T03:36:27.680Z,23.32
2023-04-25T03:37:27.715Z,23.34
2023-04-25T03:38:27.756Z,23.35
2023-04-25T03:39:27.765Z,23.36
2023-04-25T03:40:27.853Z,23.38
2023-04-25T03:41:27.807Z,23.40
2023-04-25T03:42:27.848Z,23.42
2023-04-25T03:43:27.864Z,23.43
2023-04-25T03:44:27.887Z,23.45
2023-04-25T03:45:27.857Z,23.46
2023-04-25T03:46:28.045Z,23.48
2023-04-25T03:47:27.940Z,23.50
2023-04-25T03:48:27.939Z,23.51
2023-04-25T03:49:27.966Z,23.53
2023-04-25T03:50:28.016Z,23.54
2023-04-25T03:51:28.058Z,23.54
2023-04-25T03:52:28.111Z,23.55
2023-04-25T03:53:28.138Z,23.56
2023-04-25T03:54:28.218Z,23.57
2023-04-25T03:55:28.249Z,23.59
2023-04-25T03:56:28.277Z,23.60
2023-04-25T03:57:28.309Z,23.60
2023-04-25T03:58:28.350Z,23.62
2023-04-25T03:59:28.406Z,23.62
2023-04-25T04:00:28.409Z,23.63
2023-04-25T04:01:28.480Z,23.64
2023-04-25T04:02:28.610Z,23.65
2023-04-25T04:03:28.822Z,23.65
2023-04-25T04:04:28.952Z,23.66
2023-04-25T04:05:28.735Z,23.67
2023-04-25T04:06:28.720Z,23.68
2023-04-25T04:07:28.756Z,23.68
2023-04-25T04:08:28.780Z,23.68
2023-04-25T04:09:28.987Z,23.69
2023-04-25T04:10:28.903Z,23.69
2023-04-25T04:11:28.930Z,23.70
2023-04-25T04:12:29.009Z,23.70
2023-04-25T04:13:29.064Z,23.70
2023-04-25T04:14:29.074Z,23.71
2023-04-25T04:15:29.152Z,23.71
2023-04-25T04:16:29.253Z,23.71
2023-04-25T04:17:29.258Z,23.72
2023-04-25T04:18:29.277Z,23.73
2023-04-25T04:19:29.346Z,23.73
2023-04-25T04:20:29.394Z,23.74
2023-04-25T04:21:29.403Z,23.74
2023-04-25T04:22:30.134Z,23.75
2023-04-25T04:23:29.517Z,23.75
2023-04-25T04:24:29.589Z,23.75
2023-04-25T04:25:29.613Z,23.76
2023-04-25T04:26:29.646Z,23.78
2023-04-25T04:27:29.699Z,23.78
2023-04-25T04:28:29.749Z,23.78
2023-04-25T04:29:29.796Z,23.79
2023-04-25T04:30:29.825Z,23.79
2023-04-25T04:31:29.861Z,23.79
2023-04-25T04:32:29.982Z,23.78
2023-04-25T04:33:30.672Z,23.79
2023-04-25T04:34:30.017Z,23.79
2023-04-25T04:35:30.065Z,23.78
2023-04-25T04:36:30.093Z,23.78
2023-04-25T04:37:30.145Z,23.78
2023-04-25T04:38:30.153Z,23.78
2023-04-25T04:39:30.209Z,23.79
2023-04-25T04:40:30.239Z,23.79
2023-04-25T04:41:30.301Z,23.78
2023-04-25T04:42:30.361Z,23.77
2023-04-25T04:43:30.441Z,23.77
2023-04-25T04:44:30.449Z,23.77
2023-04-25T04:45:30.498Z,23.76
2023-04-25T04:46:30.574Z,23.77
2023-04-25T04:47:30.621Z,23.77
2023-04-25T04:48:30.686Z,23.77
2023-04-25T04:49:30.691Z,23.78
2023-04-25T04:50:30.768Z,23.77
2023-04-25T04:51:30.797Z,23.77
2023-04-25T04:52:30.844Z,23.77
2023-04-25T04:53:30.878Z,23.76
2023-04-25T04:54:30.954Z,23.76
2023-04-25T04:55:30.966Z,23.77
2023-04-25T04:56:31.018Z,23.77
2023-04-25T04:57:31.067Z,23.77
2023-04-25T04:58:31.106Z,23.76
2023-04-25T04:59:31.147Z,23.77
2023-04-25T05:01:50.040Z,23.73
2023-04-25T05:02:50.212Z,23.74
2023-04-25T05:03:50.469Z,23.75
2023-04-25T05:04:50.142Z,23.76
2023-04-25T05:05:50.058Z,23.76
2023-04-25T05:06:50.025Z,23.76
2023-04-25T05:07:50.053Z,23.76
2023-04-25T05:08:50.059Z,23.76
2023-04-25T05:09:50.021Z,23.74
2023-04-25T05:10:50.022Z,23.74
2023-04-25T05:11:50.042Z,23.74
2023-04-25T05:12:50.031Z,23.74
2023-04-25T05:13:50.263Z,23.74
2023-04-25T05:14:50.033Z,23.74
2023-04-25T05:15:50.003Z,23.74
2023-04-25T05:16:50.070Z,23.74
2023-04-25T05:17:50.047Z,23.73
2023-04-25T05:18:49.994Z,23.73
2023-04-25T05:19:50.029Z,23.73
2023-04-25T05:20:50.023Z,23.73
2023-04-25T05:21:50.718Z,23.74
2023-04-25T05:22:49.984Z,23.74
2023-04-25T05:23:50.066Z,23.73
2023-04-25T05:24:50.025Z,23.73
2023-04-25T05:25:49.977Z,23.73
2023-04-25T05:26:49.993Z,23.72
2023-04-25T05:27:50.006Z,23.73
2023-04-25T05:28:49.989Z,23.73
2023-04-25T05:29:49.980Z,23.73
2023-04-25T05:30:49.968Z,23.72
2023-04-25T05:31:49.996Z,23.69
2023-04-25T05:32:49.961Z,23.68
2023-04-25T05:33:50.055Z,23.67
2023-04-25T05:34:50.275Z,23.67
2023-04-25T05:35:49.959Z,23.68
2023-04-25T05:36:49.938Z,23.68
2023-04-25T05:37:49.925Z,23.70
2023-04-25T05:38:49.978Z,23.71
2023-04-25T05:39:50.236Z,23.72
2023-04-25T05:40:50.075Z,23.72
2023-04-25T05:41:50.092Z,23.72
2023-04-25T05:42:50.149Z,23.73
2023-04-25T05:43:51.484Z,23.76
2023-04-25T05:44:50.723Z,23.76
2023-04-25T05:45:57.815Z,23.76
2023-04-25T05:46:50.281Z,23.76
2023-04-25T05:47:50.399Z,23.76
2023-04-25T05:48:50.288Z,23.74
2023-04-25T05:49:50.256Z,23.74
2023-04-25T05:50:50.288Z,23.73
2023-04-25T05:51:50.292Z,23.72
2023-04-25T05:52:50.244Z,23.71
2023-04-25T05:53:50.481Z,23.75
2023-04-25T05:54:50.266Z,23.76
2023-04-25T05:55:50.227Z,23.78
2023-04-25T05:56:50.264Z,23.81
2023-04-25T05:57:51.636Z,23.84
2023-04-25T05:58:50.226Z,23.85
2023-04-25T05:59:50.236Z,23.86
2023-04-25T06:00:50.237Z,23.88
2023-04-25T06:01:50.202Z,23.88
2023-04-25T06:02:50.351Z,23.87
2023-04-25T06:03:50.767Z,23.83
2023-04-25T06:04:50.332Z,23.79
2023-04-25T06:05:50.316Z,23.79
2023-04-25T06:06:50.286Z,23.79
2023-04-25T06:07:50.313Z,23.81
2023-04-25T06:08:50.392Z,23.84
2023-04-25T06:09:50.457Z,23.86
2023-04-25T06:10:50.767Z,23.85
2023-04-25T06:11:50.511Z,23.88
2023-04-25T06:12:50.560Z,24.01
2023-04-25T06:13:50.781Z,24.49
2023-04-25T06:14:50.617Z,25.87
2023-04-25T06:15:50.677Z,27.94
2023-04-25T06:16:50.666Z,30.05
2023-04-25T06:17:50.781Z,31.02
2023-04-25T06:18:50.727Z,30.65
2023-04-25T06:19:50.681Z,29.58
2023-04-25T06:20:50.687Z,28.37
2023-04-25T06:21:50.686Z,27.23
2023-04-25T06:22:50.666Z,26.43
2023-04-25T06:23:50.832Z,25.73
2023-04-25T06:24:50.669Z,25.18
2023-04-25T06:25:50.718Z,24.68
2023-04-25T06:26:50.685Z,24.32
2023-04-25T06:27:50.729Z,24.11
2023-04-25T06:28:50.747Z,23.96
2023-04-25T06:29:50.764Z,23.87
2023-04-25T06:30:50.767Z,23.79
2023-04-25T06:31:50.880Z,23.78
2023-04-25T06:32:50.954Z,23.74
2023-04-25T06:33:51.040Z,23.72
2023-04-25T06:34:50.897Z,23.71
2023-04-25T06:35:50.921Z,23.70
2023-04-25T06:36:50.925Z,23.70
2023-04-25T06:37:51.051Z,23.72
2023-04-25T06:38:51.232Z,23.75
2023-04-25T06:39:51.075Z,23.73
2023-04-25T06:40:51.288Z,23.60
2023-04-25T06:41:51.240Z,23.62
2023-04-25T06:42:51.260Z,23.68
2023-04-25T06:43:51.260Z,23.76
2023-04-25T06:44:51.275Z,23.84
2023-04-25T06:45:51.378Z,23.94
2023-04-25T06:46:51.946Z,24.00
2023-04-25T06:47:51.458Z,24.07
2023-04-25T06:48:51.592Z,24.13
2023-04-25T06:49:51.421Z,24.20
2023-04-25T06:50:51.464Z,24.28
2023-04-25T06:51:51.477Z,24.36
2023-04-25T06:52:51.469Z,24.43
2023-04-25T06:53:51.524Z,24.49
2023-04-25T06:54:51.521Z,24.53
2023-04-25T06:55:51.541Z,24.50
2023-04-25T06:56:51.537Z,24.50
2023-04-25T06:57:51.549Z,24.53
2023-04-25T06:58:51.851Z,24.50
2023-04-25T06:59:51.554Z,24.43
2023-04-25T07:00:51.623Z,24.35
2023-04-25T07:01:51.786Z,24.29
2023-04-25T07:02:51.693Z,24.20
2023-04-25T07:03:51.949Z,24.08
2023-04-25T07:04:51.763Z,23.95
2023-04-25T07:05:51.738Z,23.84
2023-04-25T07:06:51.755Z,23.78
2023-04-25T07:07:51.783Z,23.71
2023-04-25T07:08:52.072Z,23.58
2023-04-25T07:09:51.921Z,23.46
2023-04-25T07:10:51.956Z,23.33
2023-04-25T07:11:51.998Z,23.22
2023-04-25T07:12:52.027Z,23.10
2023-04-25T07:13:52.033Z,22.99
2023-04-25T07:14:52.136Z,23.01
2023-04-25T07:15:52.087Z,22.98
2023-04-25T07:16:52.457Z,23.00
2023-04-25T07:17:52.212Z,22.99
2023-04-25T07:18:52.377Z,23.04
2023-04-25T07:19:52.174Z,23.09
2023-04-25T07:20:52.217Z,22.99
2023-04-25T07:21:54.132Z,22.84
2023-04-25T07:22:52.289Z,22.73
2023-04-25T07:23:52.262Z,22.79
2023-04-25T07:24:52.315Z,22.70
2023-04-25T07:25:52.373Z,22.72
2023-04-25T07:26:52.408Z,22.76
2023-04-25T07:27:52.408Z,22.84
2023-04-25T07:28:52.689Z,22.83
2023-04-25T07:29:52.485Z,22.81
2023-04-25T07:30:52.484Z,22.64
2023-04-25T07:31:52.562Z,22.49
2023-04-25T07:32:52.690Z,22.41
2023-04-25T07:33:52.648Z,22.33
2023-04-25T07:34:52.694Z,22.19
2023-04-25T07:35:52.729Z,22.23
2023-04-25T07:36:52.816Z,22.33
2023-04-25T07:37:52.802Z,22.37
2023-04-25T07:38:53.003Z,22.45
2023-04-25T07:39:52.893Z,22.54
2023-04-25T07:40:52.939Z,22.62
2023-04-25T07:41:55.362Z,22.68
2023-04-25T07:42:53.184Z,22.81
2023-04-25T07:43:53.239Z,22.94
2023-04-25T07:44:53.239Z,23.03
2023-04-25T07:45:53.332Z,23.10
2023-04-25T07:46:53.296Z,23.14
2023-04-25T07:47:53.402Z,23.21
2023-04-25T07:48:53.594Z,23.25
2023-04-25T07:49:53.370Z,23.34
2023-04-25T07:50:53.493Z,23.43
2023-04-25T07:51:53.415Z,23.52
2023-04-25T07:52:53.470Z,23.61
2023-04-25T07:53:53.497Z,23.68
2023-04-25T07:54:53.514Z,23.75
2023-04-25T07:55:53.599Z,23.82
2023-04-25T07:56:53.921Z,23.88
2023-04-25T07:57:53.641Z,23.92
2023-04-25T07:58:53.931Z,23.96
2023-04-25T07:59:53.728Z,24.01
2023-04-25T08:00:53.748Z,24.06
2023-04-25T08:01:53.802Z,24.10
2023-04-25T08:02:53.929Z,24.17
2023-04-25T08:03:54.141Z,24.24
2023-04-25T08:04:53.997Z,24.30
2023-04-25T08:05:54.029Z,24.37
2023-04-25T08:06:53.927Z,24.43
2023-04-25T08:07:53.977Z,24.50
2023-04-25T08:08:53.993Z,24.55
2023-04-25T08:09:53.960Z,24.61
2023-04-25T08:10:53.992Z,24.66
2023-04-25T08:11:54.316Z,24.67
2023-04-25T08:12:54.017Z,24.67
2023-04-25T08:13:54.063Z,24.67
2023-04-25T08:14:54.056Z,24.69
2023-04-25T08:15:54.104Z,24.71
2023-04-25T08:16:54.076Z,24.73
2023-04-25T08:17:54.100Z,24.69
2023-04-25T08:18:54.276Z,24.67
2023-04-25T08:19:54.119Z,24.70
2023-04-25T08:20:54.128Z,24.75
2023-04-25T08:21:54.138Z,24.80
2023-04-25T08:22:54.174Z,24.84
2023-04-25T08:23:54.175Z,24.80
2023-04-25T08:24:54.184Z,24.83
2023-04-25T08:25:54.208Z,24.85
2023-04-25T08:26:54.249Z,24.89
2023-04-25T08:27:54.279Z,24.94
2023-04-25T08:28:54.296Z,24.96
2023-04-25T08:29:54.351Z,25.00
2023-04-25T08:30:54.362Z,25.01
2023-04-25T08:31:54.945Z,24.70
2023-04-25T08:32:54.440Z,24.50
2023-04-25T08:33:54.397Z,24.19
2023-04-25T08:34:54.397Z,23.69
2023-04-25T08:35:54.438Z,23.05
2023-04-25T08:36:54.857Z,22.51
2023-04-25T08:37:54.589Z,22.07
2023-04-25T08:38:55.545Z,21.83
2023-04-25T08:39:54.742Z,21.53
2023-04-25T08:40:54.830Z,21.27
2023-04-25T08:41:54.900Z,21.05
2023-04-25T08:42:54.948Z,20.98
2023-04-25T08:43:54.994Z,20.96
2023-04-25T08:44:55.101Z,20.93
2023-04-25T08:45:55.183Z,20.95
2023-04-25T08:46:55.373Z,20.94
2023-04-25T08:47:55.362Z,20.93
2023-04-25T08:48:57.250Z,20.98
2023-04-25T08:49:55.538Z,21.16
2023-04-25T08:50:55.602Z,21.25
2023-04-25T08:51:55.842Z,21.20
2023-04-25T08:52:55.653Z,21.20
2023-04-25T08:53:57.805Z,21.38
2023-04-25T08:54:55.787Z,21.42
2023-04-25T08:55:55.826Z,21.51
2023-04-25T08:56:55.904Z,21.69
2023-04-25T08:57:55.884Z,21.87
2023-04-25T08:58:55.912Z,22.06
2023-04-25T08:59:55.922Z,22.23
2023-04-25T09:00:55.945Z,22.38
2023-04-25T09:01:56.419Z,22.52
2023-04-25T09:02:56.902Z,22.64
2023-04-25T09:03:56.252Z,22.76
2023-04-25T09:04:55.999Z,22.87
2023-04-25T09:05:56.077Z,22.97
2023-04-25T09:06:56.007Z,23.05
2023-04-25T09:07:56.352Z,23.14
2023-04-25T09:08:56.026Z,23.22
2023-04-25T09:09:56.033Z,23.27
2023-04-25T09:10:56.035Z,23.32
2023-04-25T09:11:56.065Z,23.38
2023-04-25T09:12:56.042Z,23.43
2023-04-25T09:13:56.056Z,23.50
2023-04-25T09:14:56.021Z,23.54
2023-04-25T09:15:56.040Z,23.60
2023-04-25T09:16:56.096Z,23.63
2023-04-25T09:17:56.352Z,23.65
2023-04-25T09:18:56.101Z,23.67
2023-04-25T09:19:56.092Z,23.67
2023-04-25T09:21:01.742Z,23.69
2023-04-25T09:21:57.095Z,23.70
2023-04-25T09:22:56.110Z,23.72
2023-04-25T09:23:56.050Z,23.73
2023-04-25T09:24:56.100Z,23.59
2023-04-25T09:25:56.139Z,23.53
2023-04-25T09:26:56.156Z,23.53
2023-04-25T09:27:56.111Z,23.56
2023-04-25T09:28:56.107Z,23.61
2023-04-25T09:29:56.085Z,23.64
2023-04-25T09:30:56.093Z,23.69
2023-04-25T09:31:56.128Z,23.73
2023-04-25T09:32:56.395Z,23.76
2023-04-25T09:33:56.919Z,23.78
2023-04-25T09:34:56.136Z,23.81
2023-04-25T09:35:56.246Z,23.81
2023-04-25T09:36:56.242Z,23.82
2023-04-25T09:37:56.361Z,23.86
2023-04-25T09:38:56.330Z,23.88
2023-04-25T09:39:56.353Z,23.89
2023-04-25T09:40:56.453Z,23.88
2023-04-25T09:41:56.457Z,23.90
2023-04-25T09:42:56.857Z,23.90
2023-04-25T09:43:56.618Z,23.92
2023-04-25T09:44:56.608Z,23.93
2023-04-25T09:45:58.736Z,23.74
2023-04-25T09:46:56.713Z,23.63
2023-04-25T09:47:57.004Z,23.56
2023-04-25T09:48:56.817Z,23.43
2023-04-25T09:49:56.914Z,23.33
2023-04-25T09:50:56.888Z,23.21
2023-04-25T09:51:56.929Z,23.10
2023-04-25T09:52:56.938Z,23.08
2023-04-25T09:53:56.991Z,23.07
2023-04-25T09:54:57.057Z,23.06
2023-04-25T09:55:57.068Z,23.10
2023-04-25T09:56:57.083Z,23.05
2023-04-25T09:57:57.407Z,22.99
2023-04-25T09:58:57.104Z,22.93
2023-04-25T09:59:57.259Z,22.90
2023-04-25T10:00:57.229Z,22.92
2023-04-25T10:01:57.248Z,22.86
2023-04-25T10:02:57.294Z,22.75
2023-04-25T10:03:57.774Z,22.70
2023-04-25T10:04:57.533Z,22.73
2023-04-25T10:05:57.389Z,22.80
2023-04-25T10:06:57.417Z,22.69
2023-04-25T10:07:57.446Z,22.55
2023-04-25T10:08:58.381Z,22.47
2023-04-25T10:09:57.540Z,22.38
2023-04-25T10:10:57.521Z,22.31
2023-04-25T10:11:57.581Z,22.39
2023-04-25T10:12:57.613Z,22.50
2023-04-25T10:13:57.686Z,22.61
2023-04-25T10:14:57.706Z,22.75
2023-04-25T10:15:57.813Z,22.88
2023-04-25T10:16:57.765Z,23.00
2023-04-25T10:17:57.814Z,23.08
2023-04-25T10:18:57.825Z,23.14
2023-04-25T10:19:57.917Z,23.21
2023-04-25T10:20:57.898Z,23.30
2023-04-25T10:21:57.916Z,23.37
2023-04-25T10:22:58.168Z,23.41
2023-04-25T10:23:57.957Z,23.46
2023-04-25T10:24:58.037Z,23.50
2023-04-25T10:25:58.023Z,23.54
2023-04-25T10:26:58.091Z,23.58
2023-04-25T10:27:58.123Z,23.61
2023-04-25T10:28:58.172Z,23.64
2023-04-25T10:29:58.204Z,23.68
2023-04-25T10:30:58.361Z,23.73
2023-04-25T10:31:58.350Z,23.78
2023-04-25T10:32:58.380Z,23.82
2023-04-25T10:33:58.420Z,23.86
2023-04-25T10:34:58.523Z,23.89
2023-04-25T10:35:58.494Z,23.93
2023-04-25T10:36:58.535Z,23.92
2023-04-25T10:37:58.885Z,23.94
2023-04-25T10:38:58.583Z,23.95
2023-04-25T10:39:58.697Z,23.97
2023-04-25T10:40:58.698Z,23.98
2023-04-25T10:41:58.733Z,23.91
2023-04-25T10:42:58.880Z,23.89
2023-04-25T10:43:58.827Z,23.90
2023-04-25T10:44:58.868Z,23.92
2023-04-25T10:45:58.966Z,23.96
2023-04-25T10:46:59.178Z,24.01
2023-04-25T10:47:59.423Z,24.05
2023-04-25T10:48:59.004Z,24.09
2023-04-25T10:49:59.016Z,24.13
2023-04-25T10:50:59.023Z,24.19
2023-04-25T10:51:59.073Z,24.24
2023-04-25T10:52:59.088Z,24.29
2023-04-25T10:53:59.132Z,24.33
2023-04-25T10:54:59.149Z,24.36
2023-04-25T10:55:59.148Z,24.39
2023-04-25T10:56:59.165Z,24.44
2023-04-25T10:57:59.474Z,24.47
2023-04-25T10:58:59.454Z,24.50
2023-04-25T10:59:59.197Z,24.52
2023-04-25T11:00:59.274Z,24.54
2023-04-25T11:01:59.349Z,24.58
2023-04-25T11:03:01.055Z,24.61
2023-04-25T11:03:59.699Z,24.63
2023-04-25T11:04:59.408Z,24.65
2023-04-25T11:05:59.378Z,24.68
2023-04-25T11:07:05.896Z,24.69
2023-04-25T11:08:07.766Z,24.73
2023-04-25T11:09:00.875Z,24.76
2023-04-25T11:10:00.354Z,24.82
2023-04-25T11:10:59.363Z,24.85
2023-04-25T11:11:59.805Z,24.88
2023-04-25T11:12:59.365Z,24.90
2023-04-25T11:13:59.461Z,24.91
2023-04-25T11:14:59.282Z,24.94
2023-04-25T11:16:07.409Z,24.96
2023-04-25T11:17:01.092Z,24.99
2023-04-25T11:17:59.342Z,25.01
2023-04-25T11:18:59.381Z,25.01
2023-04-25T11:19:59.253Z,25.02
2023-04-25T11:20:59.243Z,25.04
2023-04-25T11:21:59.188Z,25.06
2023-04-25T11:22:59.208Z,25.04
2023-04-25T11:23:59.397Z,24.99
2023-04-25T11:24:59.172Z,24.95
2023-04-25T11:25:59.192Z,24.91
2023-04-25T11:26:59.225Z,24.84
2023-04-25T11:27:59.221Z,24.77
2023-04-25T11:28:59.895Z,24.69
2023-04-25T11:29:59.253Z,24.59
2023-04-25T11:30:59.306Z,24.51
2023-04-25T11:31:59.652Z,24.45
2023-04-25T11:32:59.356Z,24.41
2023-04-25T11:33:59.412Z,24.36
2023-04-25T11:34:59.382Z,24.34
2023-04-25T11:35:59.383Z,24.30
2023-04-25T11:36:59.430Z,24.30
2023-04-25T11:37:59.441Z,24.29
2023-04-25T11:38:59.943Z,24.30
2023-04-25T11:39:59.498Z,24.29
2023-04-25T11:40:59.539Z,24.30
2023-04-25T11:42:01.198Z,24.31
2023-04-25T11:42:59.559Z,24.32
2023-04-25T11:43:59.603Z,24.32
2023-04-25T11:44:59.604Z,24.33
2023-04-25T11:45:59.676Z,24.34
2023-04-25T11:46:59.624Z,24.35
2023-04-25T11:47:59.728Z,24.36
2023-04-25T11:48:59.658Z,24.38
2023-04-25T11:49:59.687Z,24.40
2023-04-25T11:50:59.710Z,24.42
2023-04-25T11:51:59.723Z,24.43
2023-04-25T11:52:59.729Z,24.44
2023-04-25T11:53:59.758Z,24.45
2023-04-25T11:54:59.767Z,24.47
2023-04-25T11:55:59.786Z,24.50
2023-04-25T11:56:59.837Z,24.51
2023-04-25T11:58:00.411Z,24.51
2023-04-25T11:58:59.882Z,24.54
2023-04-25T11:59:59.889Z,24.53
2023-04-25T12:00:59.869Z,24.54
2023-04-25T12:01:59.911Z,24.55
2023-04-25T12:03:00.116Z,24.56
2023-04-25T12:04:00.117Z,24.57
2023-04-25T12:05:11.769Z,24.51
2023-04-25T12:06:01.089Z,24.39
2023-04-25T12:06:59.992Z,24.23
2023-04-25T12:07:59.958Z,24.09
2023-04-25T12:08:59.986Z,24.02
2023-04-25T12:09:59.935Z,23.97
2023-04-25T12:10:59.927Z,23.82
2023-04-25T12:11:59.962Z,23.67
2023-04-25T12:12:59.949Z,23.53
2023-04-25T12:13:59.935Z,23.40
2023-04-25T12:14:59.954Z,23.39
2023-04-25T12:15:59.976Z,23.42
2023-04-25T12:16:59.978Z,23.47
2023-04-25T12:18:00.037Z,23.52
2023-04-25T12:18:59.977Z,23.57
2023-04-25T12:19:59.989Z,23.64
2023-04-25T12:21:00.051Z,23.72
2023-04-25T12:22:00.074Z,23.78
2023-04-25T12:23:00.125Z,23.84
2023-04-25T12:24:00.140Z,23.88
2023-04-25T12:25:00.173Z,23.94
2023-04-25T12:26:00.197Z,24.00
2023-04-25T12:27:00.256Z,24.04
2023-04-25T12:28:00.237Z,24.09
2023-04-25T12:29:00.265Z,24.11
2023-04-25T12:30:00.292Z,24.15
2023-04-25T12:31:00.445Z,24.18
2023-04-25T12:32:00.510Z,24.21
2023-04-25T12:33:00.468Z,24.24
2023-04-25T12:34:00.426Z,24.26
2023-04-25T12:35:00.501Z,24.28
2023-04-25T12:36:00.498Z,24.30
2023-04-25T12:37:00.544Z,24.32
2023-04-25T12:38:00.552Z,24.34
2023-04-25T12:39:00.553Z,24.35
2023-04-25T12:40:00.632Z,24.36
2023-04-25T12:41:01.424Z,24.37
2023-04-25T12:42:00.614Z,24.38
2023-04-25T12:43:00.662Z,24.39
2023-04-25T12:44:00.707Z,24.40
2023-04-25T12:45:00.724Z,24.41
2023-04-25T12:46:00.713Z,24.41
2023-04-25T12:47:00.931Z,24.41
2023-04-25T12:48:01.991Z,24.41
2023-04-25T12:49:11.725Z,24.41
2023-04-25T12:50:01.992Z,24.41
2023-04-25T12:51:00.973Z,24.42
2023-04-25T12:52:00.959Z,24.42
2023-04-25T12:53:00.933Z,24.41
2023-04-25T12:54:01.480Z,24.42